sensor_id;sensor_type;location;lat;lon;timestamp;pressure;altitude;pressure_sealevel;temperature;humidity
12759;BME280;20944;47.048;15.390;2023-04-28T00:00:04;97890.56;;;10.89;71.71
12759;BME280;20944;47.048;15.390;2023-04-28T00:02:33;97890.56;;;10.89;72.80
12759;BME280;20944;47.048;15.390;2023-04-28T00:05:01;97888.69;;;10.92;74.44
12759;BME280;20944;47.048;15.390;2023-04-28T00:07:29;97881.84;;;10.87;73.96
12759;BME280;20944;47.048;15.390;2023-04-28T00:09:57;97876.81;;;10.79;74.10
12759;BME280;20944;47.048;15.390;2023-04-28T00:12:26;97885.41;;;10.84;72.03
12759;BME280;20944;47.048;15.390;2023-04-28T00:14:55;97843.13;;;10.64;72.82
12759;BME280;20944;47.048;15.390;2023-04-28T00:17:23;97871.56;;;10.79;71.91
12759;BME280;20944;47.048;15.390;2023-04-28T00:19:52;97880.53;;;10.70;71.24
12759;BME280;20944;47.048;15.390;2023-04-28T00:22:20;97861.81;;;10.48;71.31
12759;BME280;20944;47.048;15.390;2023-04-28T00:24:48;97816.25;;;10.18;71.72
12759;BME280;20944;47.048;15.390;2023-04-28T00:27:16;97857.47;;;10.47;70.98
12759;BME280;20944;47.048;15.390;2023-04-28T00:29:46;97864.53;;;10.45;72.28
12759;BME280;20944;47.048;15.390;2023-04-28T00:32:15;97873.47;;;10.35;70.91
12759;BME280;20944;47.048;15.390;2023-04-28T00:34:44;97861.31;;;10.33;70.47
12759;BME280;20944;47.048;15.390;2023-04-28T00:37:12;97848.28;;;10.30;71.00
12759;BME280;20944;47.048;15.390;2023-04-28T00:39:40;97867.47;;;10.30;72.49
12759;BME280;20944;47.048;15.390;2023-04-28T00:42:13;97843.47;;;10.10;72.60
12759;BME280;20944;47.048;15.390;2023-04-28T00:44:41;97864.41;;;10.10;72.74
12759;BME280;20944;47.048;15.390;2023-04-28T00:47:09;97871.38;;;10.12;74.49
12759;BME280;20944;47.048;15.390;2023-04-28T00:49:39;97859.28;;;10.05;73.76
12759;BME280;20944;47.048;15.390;2023-04-28T00:52:08;97866.44;;;9.97;72.77
12759;BME280;20944;47.048;15.390;2023-04-28T00:54:37;97817.34;;;9.68;72.45
12759;BME280;20944;47.048;15.390;2023-04-28T00:57:05;97858.88;;;9.83;74.46
12759;BME280;20944;47.048;15.390;2023-04-28T00:59:34;97856.16;;;9.89;75.60
12759;BME280;20944;47.048;15.390;2023-04-28T01:02:02;97765.00;;;9.28;75.12
12759;BME280;20944;47.048;15.390;2023-04-28T01:04:31;97805.41;;;9.56;75.50
12759;BME280;20944;47.048;15.390;2023-04-28T01:07:02;97847.75;;;9.73;77.01
12759;BME280;20944;47.048;15.390;2023-04-28T01:09:30;97841.03;;;9.60;77.32
12759;BME280;20944;47.048;15.390;2023-04-28T01:11:58;97854.84;;;9.68;76.61
12759;BME280;20944;47.048;15.390;2023-04-28T01:14:27;97843.03;;;9.49;75.74
12759;BME280;20944;47.048;15.390;2023-04-28T01:16:55;97855.16;;;9.53;75.68
12759;BME280;20944;47.048;15.390;2023-04-28T01:19:24;97856.84;;;9.54;76.79
12759;BME280;20944;47.048;15.390;2023-04-28T01:21:53;97854.00;;;9.66;75.94
12759;BME280;20944;47.048;15.390;2023-04-28T01:24:23;97860.09;;;9.67;76.49
12759;BME280;20944;47.048;15.390;2023-04-28T01:26:51;97861.16;;;9.58;76.28
12759;BME280;20944;47.048;15.390;2023-04-28T01:29:19;97863.06;;;9.49;77.36
12759;BME280;20944;47.048;15.390;2023-04-28T01:31:47;97860.50;;;9.47;77.80
12759;BME280;20944;47.048;15.390;2023-04-28T01:34:16;97859.75;;;9.40;77.88
12759;BME280;20944;47.048;15.390;2023-04-28T01:36:44;97858.75;;;9.48;77.61
12759;BME280;20944;47.048;15.390;2023-04-28T01:39:12;97855.22;;;9.49;77.90
12759;BME280;20944;47.048;15.390;2023-04-28T01:41:42;97850.78;;;9.54;77.00
12759;BME280;20944;47.048;15.390;2023-04-28T01:44:10;97849.06;;;9.53;77.13
12759;BME280;20944;47.048;15.390;2023-04-28T01:46:39;97685.53;;;8.48;77.20
12759;BME280;20944;47.048;15.390;2023-04-28T01:49:07;97844.03;;;9.42;76.69
12759;BME280;20944;47.048;15.390;2023-04-28T01:51:35;97844.06;;;9.40;76.73
12759;BME280;20944;47.048;15.390;2023-04-28T01:54:03;97835.28;;;9.44;76.66
12759;BME280;20944;47.048;15.390;2023-04-28T01:56:32;97839.66;;;9.44;76.57
12759;BME280;20944;47.048;15.390;2023-04-28T01:59:01;97816.47;;;9.26;76.50
12759;BME280;20944;47.048;15.390;2023-04-28T02:01:29;97850.13;;;9.42;77.43
12759;BME280;20944;47.048;15.390;2023-04-28T02:03:58;97830.44;;;9.25;76.54
12759;BME280;20944;47.048;15.390;2023-04-28T02:06:26;97853.91;;;9.28;76.57
12759;BME280;20944;47.048;15.390;2023-04-28T02:08:54;97843.56;;;9.22;77.71
12759;BME280;20944;47.048;15.390;2023-04-28T02:11:23;97853.13;;;9.23;78.37
12759;BME280;20944;47.048;15.390;2023-04-28T02:13:51;97810.88;;;8.99;78.11
12759;BME280;20944;47.048;15.390;2023-04-28T02:16:20;97847.78;;;9.30;77.43
12759;BME280;20944;47.048;15.390;2023-04-28T02:18:48;97851.41;;;9.22;77.66
12759;BME280;20944;47.048;15.390;2023-04-28T02:21:17;97852.41;;;9.14;77.80
12759;BME280;20944;47.048;15.390;2023-04-28T02:23:45;97855.03;;;9.14;78.00
12759;BME280;20944;47.048;15.390;2023-04-28T02:26:13;97849.00;;;9.09;78.21
12759;BME280;20944;47.048;15.390;2023-04-28T02:28:42;97856.81;;;9.12;77.76
12759;BME280;20944;47.048;15.390;2023-04-28T02:31:10;97855.94;;;9.12;78.39
12759;BME280;20944;47.048;15.390;2023-04-28T02:33:41;97848.97;;;9.11;78.39
12759;BME280;20944;47.048;15.390;2023-04-28T02:36:09;97851.69;;;9.06;77.63
12759;BME280;20944;47.048;15.390;2023-04-28T02:38:37;97850.81;;;9.07;78.15
12759;BME280;20944;47.048;15.390;2023-04-28T02:41:07;97803.50;;;8.73;77.94
12759;BME280;20944;47.048;15.390;2023-04-28T02:43:36;97846.66;;;8.96;78.86
12759;BME280;20944;47.048;15.390;2023-04-28T02:46:04;97864.06;;;8.97;78.79
12759;BME280;20944;47.048;15.390;2023-04-28T02:48:33;97837.34;;;8.81;79.07
12759;BME280;20944;47.048;15.390;2023-04-28T02:51:04;97849.53;;;8.80;79.93
12759;BME280;20944;47.048;15.390;2023-04-28T02:53:32;97841.72;;;8.79;79.84
12759;BME280;20944;47.048;15.390;2023-04-28T02:56:00;97849.19;;;9.00;78.80
12759;BME280;20944;47.048;15.390;2023-04-28T02:58:30;97854.56;;;8.91;78.96
12759;BME280;20944;47.048;15.390;2023-04-28T03:00:58;97846.78;;;8.88;80.63
12759;BME280;20944;47.048;15.390;2023-04-28T03:03:26;97852.06;;;8.85;80.83
12759;BME280;20944;47.048;15.390;2023-04-28T03:05:55;97848.44;;;8.94;79.99
12759;BME280;20944;47.048;15.390;2023-04-28T03:08:25;97828.72;;;8.76;80.15
12759;BME280;20944;47.048;15.390;2023-04-28T03:10:53;97840.13;;;8.70;80.28
12759;BME280;20944;47.048;15.390;2023-04-28T03:13:21;97831.41;;;8.71;80.22
12759;BME280;20944;47.048;15.390;2023-04-28T03:15:50;97825.63;;;8.52;81.66
12759;BME280;20944;47.048;15.390;2023-04-28T03:18:18;97809.28;;;8.40;82.67
12759;BME280;20944;47.048;15.390;2023-04-28T03:20:46;97834.38;;;8.48;82.57
12759;BME280;20944;47.048;15.390;2023-04-28T03:23:14;97816.22;;;8.41;82.88
12759;BME280;20944;47.048;15.390;2023-04-28T03:25:44;97828.22;;;8.52;82.88
12759;BME280;20944;47.048;15.390;2023-04-28T03:28:12;97828.22;;;8.52;82.17
12759;BME280;20944;47.048;15.390;2023-04-28T03:30:40;97830.03;;;8.50;82.73
12759;BME280;20944;47.048;15.390;2023-04-28T03:33:08;97824.88;;;8.46;83.38
12759;BME280;20944;47.048;15.390;2023-04-28T03:35:37;97794.75;;;8.22;83.64
12759;BME280;20944;47.048;15.390;2023-04-28T03:38:05;97827.41;;;8.50;83.30
12759;BME280;20944;47.048;15.390;2023-04-28T03:40:33;97826.63;;;8.45;82.67
12759;BME280;20944;47.048;15.390;2023-04-28T03:43:04;97836.13;;;8.49;82.64
12759;BME280;20944;47.048;15.390;2023-04-28T03:45:32;97827.44;;;8.47;83.17
12759;BME280;20944;47.048;15.390;2023-04-28T03:48:00;97825.69;;;8.48;83.27
12759;BME280;20944;47.048;15.390;2023-04-28T03:50:28;97811.94;;;8.35;83.29
12759;BME280;20944;47.048;15.390;2023-04-28T03:52:56;97829.16;;;8.48;83.37
12759;BME280;20944;47.048;15.390;2023-04-28T03:55:25;97824.88;;;8.46;83.74
12759;BME280;20944;47.048;15.390;2023-04-28T03:57:53;97837.94;;;8.44;84.25
12759;BME280;20944;47.048;15.390;2023-04-28T04:00:23;97800.81;;;8.22;84.86
12759;BME280;20944;47.048;15.390;2023-04-28T04:02:51;97831.88;;;8.42;84.12
12759;BME280;20944;47.048;15.390;2023-04-28T04:05:20;97818.94;;;8.36;84.02
12759;BME280;20944;47.048;15.390;2023-04-28T04:07:48;97827.47;;;8.46;83.42
12759;BME280;20944;47.048;15.390;2023-04-28T04:10:16;97830.78;;;8.57;85.39
12759;BME280;20944;47.048;15.390;2023-04-28T04:12:44;97822.78;;;8.68;86.98
12759;BME280;20944;47.048;15.390;2023-04-28T04:15:12;97821.06;;;8.65;86.01
12759;BME280;20944;47.048;15.390;2023-04-28T04:17:42;97836.38;;;8.86;84.56
12759;BME280;20944;47.048;15.390;2023-04-28T04:20:11;97612.34;;;7.54;83.92
12759;BME280;20944;47.048;15.390;2023-04-28T04:22:39;97816.56;;;8.75;83.95
12759;BME280;20944;47.048;15.390;2023-04-28T04:25:08;97720.00;;;8.18;84.59
12759;BME280;20944;47.048;15.390;2023-04-28T04:27:36;97837.91;;;8.97;82.52
12759;BME280;20944;47.048;15.390;2023-04-28T04:30:05;97780.13;;;8.65;82.34
12759;BME280;20944;47.048;15.390;2023-04-28T04:32:34;97781.19;;;8.54;83.16
12759;BME280;20944;47.048;15.390;2023-04-28T04:35:04;97828.44;;;8.91;85.09
12759;BME280;20944;47.048;15.390;2023-04-28T04:37:32;97727.50;;;8.39;84.60
12759;BME280;20944;47.048;15.390;2023-04-28T04:40:01;97773.03;;;8.74;82.52
12759;BME280;20944;47.048;15.390;2023-04-28T04:42:29;97819.53;;;9.01;82.82
12759;BME280;20944;47.048;15.390;2023-04-28T04:44:57;97717.81;;;8.46;83.45
12759;BME280;20944;47.048;15.390;2023-04-28T04:47:25;97721.97;;;8.54;83.36
12759;BME280;20944;47.048;15.390;2023-04-28T04:49:54;97826.13;;;9.22;83.22
12759;BME280;20944;47.048;15.390;2023-04-28T04:52:23;97788.19;;;9.01;84.00
12759;BME280;20944;47.048;15.390;2023-04-28T04:54:51;97813.13;;;9.17;83.05
12759;BME280;20944;47.048;15.390;2023-04-28T04:57:22;97832.94;;;9.31;82.11
12759;BME280;20944;47.048;15.390;2023-04-28T04:59:50;97829.31;;;9.36;81.46
12759;BME280;20944;47.048;15.390;2023-04-28T05:02:18;97813.78;;;9.29;81.03
12759;BME280;20944;47.048;15.390;2023-04-28T05:04:47;97812.91;;;9.28;81.50
12759;BME280;20944;47.048;15.390;2023-04-28T05:07:15;97826.56;;;9.42;81.55
12759;BME280;20944;47.048;15.390;2023-04-28T05:09:45;97804.13;;;9.32;81.18
12759;BME280;20944;47.048;15.390;2023-04-28T05:12:13;97834.38;;;9.45;81.62
12759;BME280;20944;47.048;15.390;2023-04-28T05:14:41;97829.19;;;9.42;81.80
12759;BME280;20944;47.048;15.390;2023-04-28T05:17:09;97816.13;;;9.42;81.75
12759;BME280;20944;47.048;15.390;2023-04-28T05:19:38;97724.59;;;9.01;80.74
12759;BME280;20944;47.048;15.390;2023-04-28T05:22:06;97790.97;;;9.37;81.20
12759;BME280;20944;47.048;15.390;2023-04-28T05:24:34;97792.69;;;9.38;81.45
12759;BME280;20944;47.048;15.390;2023-04-28T05:27:04;97747.84;;;9.14;81.81
12759;BME280;20944;47.048;15.390;2023-04-28T05:29:32;97819.50;;;9.48;82.26
12759;BME280;20944;47.048;15.390;2023-04-28T05:32:00;97815.97;;;9.50;82.15
12759;BME280;20944;47.048;15.390;2023-04-28T05:34:29;97801.94;;;9.54;82.88
12759;BME280;20944;47.048;15.390;2023-04-28T05:36:57;97785.34;;;9.55;82.90
12759;BME280;20944;47.048;15.390;2023-04-28T05:39:25;97806.00;;;9.67;83.35
12759;BME280;20944;47.048;15.390;2023-04-28T05:41:54;97812.66;;;9.84;81.70
12759;BME280;20944;47.048;15.390;2023-04-28T05:44:23;97736.69;;;9.46;80.24
12759;BME280;20944;47.048;15.390;2023-04-28T05:46:52;97806.91;;;10.07;79.37
12759;BME280;20944;47.048;15.390;2023-04-28T05:49:20;97811.97;;;10.14;78.19
12759;BME280;20944;47.048;15.390;2023-04-28T05:51:48;97810.25;;;10.13;78.50
12759;BME280;20944;47.048;15.390;2023-04-28T05:54:16;97795.44;;;10.12;77.72
12759;BME280;20944;47.048;15.390;2023-04-28T05:56:45;97793.59;;;10.16;77.72
12759;BME280;20944;47.048;15.390;2023-04-28T05:59:13;97768.72;;;9.96;78.92
12759;BME280;20944;47.048;15.390;2023-04-28T06:01:43;97806.41;;;10.28;79.59
12759;BME280;20944;47.048;15.390;2023-04-28T06:04:11;97807.94;;;10.37;79.08
12759;BME280;20944;47.048;15.390;2023-04-28T06:06:40;97770.72;;;10.25;77.22
12759;BME280;20944;47.048;15.390;2023-04-28T06:09:08;97794.75;;;10.41;79.14
12759;BME280;20944;47.048;15.390;2023-04-28T06:11:36;97696.53;;;9.86;77.71
12759;BME280;20944;47.048;15.390;2023-04-28T06:14:05;97797.16;;;10.49;76.76
12759;BME280;20944;47.048;15.390;2023-04-28T06:16:33;97799.06;;;10.44;75.99
12759;BME280;20944;47.048;15.390;2023-04-28T06:19:03;97795.34;;;10.52;75.67
12759;BME280;20944;47.048;15.390;2023-04-28T06:21:31;97812.69;;;10.58;76.74
12759;BME280;20944;47.048;15.390;2023-04-28T06:23:59;97826.59;;;10.60;76.05
12759;BME280;20944;47.048;15.390;2023-04-28T06:26:28;97690.53;;;9.83;74.97
12759;BME280;20944;47.048;15.390;2023-04-28T06:28:56;97785.13;;;10.43;74.30
12759;BME280;20944;47.048;15.390;2023-04-28T06:31:25;97808.59;;;10.82;74.12
12759;BME280;20944;47.048;15.390;2023-04-28T06:33:53;97831.78;;;10.97;74.08
12759;BME280;20944;47.048;15.390;2023-04-28T06:36:22;97824.66;;;11.02;73.89
12759;BME280;20944;47.048;15.390;2023-04-28T06:38:51;97788.50;;;10.81;73.88
12759;BME280;20944;47.048;15.390;2023-04-28T06:41:19;97808.97;;;10.99;74.37
12759;BME280;20944;47.048;15.390;2023-04-28T06:43:47;97794.25;;;10.95;73.71
12759;BME280;20944;47.048;15.390;2023-04-28T06:46:16;97812.22;;;11.09;71.38
12759;BME280;20944;47.048;15.390;2023-04-28T06:48:44;97770.66;;;10.95;72.23
12759;BME280;20944;47.048;15.390;2023-04-28T06:51:13;97814.25;;;11.30;73.47
12759;BME280;20944;47.048;15.390;2023-04-28T06:53:43;97767.22;;;11.24;72.62
12759;BME280;20944;47.048;15.390;2023-04-28T06:56:12;97807.22;;;11.64;71.03
12759;BME280;20944;47.048;15.390;2023-04-28T06:58:41;97720.84;;;11.25;71.68
12759;BME280;20944;47.048;15.390;2023-04-28T07:01:09;97809.84;;;11.93;70.30
12759;BME280;20944;47.048;15.390;2023-04-28T07:03:37;97811.34;;;12.02;68.47
12759;BME280;20944;47.048;15.390;2023-04-28T07:06:05;97806.72;;;12.10;67.85
12759;BME280;20944;47.048;15.390;2023-04-28T07:08:34;97803.41;;;12.03;68.48
12759;BME280;20944;47.048;15.390;2023-04-28T07:11:04;97808.63;;;12.05;68.14
12759;BME280;20944;47.048;15.390;2023-04-28T07:13:32;97795.78;;;11.96;68.58
12759;BME280;20944;47.048;15.390;2023-04-28T07:16:00;97799.81;;;12.07;69.79
12759;BME280;20944;47.048;15.390;2023-04-28T07:18:29;97790.03;;;12.11;69.85
12759;BME280;20944;47.048;15.390;2023-04-28T07:20:57;97803.38;;;12.33;67.36
12759;BME280;20944;47.048;15.390;2023-04-28T07:23:25;97788.47;;;12.33;66.93
12759;BME280;20944;47.048;15.390;2023-04-28T07:25:54;97800.50;;;12.40;67.17
12759;BME280;20944;47.048;15.390;2023-04-28T07:28:23;97795.19;;;12.42;64.97
12759;BME280;20944;47.048;15.390;2023-04-28T07:30:51;97763.97;;;12.33;65.96
12759;BME280;20944;47.048;15.390;2023-04-28T07:33:20;97774.00;;;12.47;66.19
12759;BME280;20944;47.048;15.390;2023-04-28T07:35:48;97763.56;;;12.45;65.86
12759;BME280;20944;47.048;15.390;2023-04-28T07:38:18;97781.88;;;12.73;64.32
12759;BME280;20944;47.048;15.390;2023-04-28T07:40:47;97672.50;;;12.18;63.76
12759;BME280;20944;47.048;15.390;2023-04-28T07:43:18;97778.69;;;12.90;62.18
12759;BME280;20944;47.048;15.390;2023-04-28T07:45:48;97765.81;;;12.82;61.56
12759;BME280;20944;47.048;15.390;2023-04-28T07:48:16;97773.94;;;12.75;62.09
12759;BME280;20944;47.048;15.390;2023-04-28T07:50:44;97776.53;;;12.76;63.10
12759;BME280;20944;47.048;15.390;2023-04-28T07:53:13;97756.84;;;12.61;63.55
12759;BME280;20944;47.048;15.390;2023-04-28T07:55:41;97766.84;;;12.52;66.12
12759;BME280;20944;47.048;15.390;2023-04-28T07:58:10;97770.72;;;12.40;66.13
12759;BME280;20944;47.048;15.390;2023-04-28T08:00:38;97709.00;;;11.99;64.46
12759;BME280;20944;47.048;15.390;2023-04-28T08:03:08;97763.69;;;12.14;65.05
12759;BME280;20944;47.048;15.390;2023-04-28T08:05:37;97748.53;;;11.94;65.00
12759;BME280;20944;47.048;15.390;2023-04-28T08:08:07;97750.47;;;11.89;65.92
12759;BME280;20944;47.048;15.390;2023-04-28T08:10:35;97783.50;;;11.96;64.63
12759;BME280;20944;47.048;15.390;2023-04-28T08:13:04;97776.88;;;11.84;64.85
12759;BME280;20944;47.048;15.390;2023-04-28T08:15:32;97795.84;;;11.93;65.76
12759;BME280;20944;47.048;15.390;2023-04-28T08:18:01;97780.75;;;12.01;65.61
12759;BME280;20944;47.048;15.390;2023-04-28T08:20:30;97784.00;;;12.09;65.49
12759;BME280;20944;47.048;15.390;2023-04-28T08:22:59;97778.53;;;12.15;64.01
12759;BME280;20944;47.048;15.390;2023-04-28T08:25:27;97761.09;;;12.12;63.89
12759;BME280;20944;47.048;15.390;2023-04-28T08:27:56;97627.88;;;11.35;63.95
12759;BME280;20944;47.048;15.390;2023-04-28T08:30:24;97781.06;;;12.18;63.90
12759;BME280;20944;47.048;15.390;2023-04-28T08:32:52;97771.47;;;12.17;64.06
12759;BME280;20944;47.048;15.390;2023-04-28T08:35:20;97779.88;;;12.28;63.06
12759;BME280;20944;47.048;15.390;2023-04-28T08:37:50;97772.06;;;12.25;63.63
12759;BME280;20944;47.048;15.390;2023-04-28T08:40:19;97765.94;;;12.26;63.69
12759;BME280;20944;47.048;15.390;2023-04-28T08:42:47;97772.06;;;12.25;64.24
12759;BME280;20944;47.048;15.390;2023-04-28T08:45:16;97758.38;;;12.15;65.41
12759;BME280;20944;47.048;15.390;2023-04-28T08:47:44;97688.13;;;11.66;64.54
12759;BME280;20944;47.048;15.390;2023-04-28T08:50:21;97713.84;;;11.84;64.65
12759;BME280;20944;47.048;15.390;2023-04-28T08:52:51;97753.97;;;12.16;65.36
12759;BME280;20944;47.048;15.390;2023-04-28T08:55:19;97750.38;;;12.19;65.21
12759;BME280;20944;47.048;15.390;2023-04-28T08:57:49;97750.44;;;12.17;65.28
12759;BME280;20944;47.048;15.390;2023-04-28T09:00:18;97743.56;;;12.13;65.66
12759;BME280;20944;47.048;15.390;2023-04-28T09:02:46;97755.69;;;12.17;65.24
12759;BME280;20944;47.048;15.390;2023-04-28T09:05:15;97749.72;;;12.12;66.78
12759;BME280;20944;47.048;15.390;2023-04-28T09:07:44;97782.09;;;12.12;67.68
12759;BME280;20944;47.048;15.390;2023-04-28T09:10:19;97741.66;;;12.18;67.29
12759;BME280;20944;47.048;15.390;2023-04-28T09:12:52;97761.88;;;12.42;64.45
12759;BME280;20944;47.048;15.390;2023-04-28T09:15:25;97757.97;;;12.54;63.55
12759;BME280;20944;47.048;15.390;2023-04-28T09:17:54;97757.06;;;12.55;64.25
12759;BME280;20944;47.048;15.390;2023-04-28T09:20:23;97748.19;;;12.59;64.39
12759;BME280;20944;47.048;15.390;2023-04-28T09:22:53;97751.75;;;12.57;64.20
12759;BME280;20944;47.048;15.390;2023-04-28T09:25:22;97761.44;;;12.81;65.09
12759;BME280;20944;47.048;15.390;2023-04-28T09:27:52;97745.56;;;12.84;63.04
12759;BME280;20944;47.048;15.390;2023-04-28T09:30:37;97757.47;;;12.94;62.23
12759;BME280;20944;47.048;15.390;2023-04-28T09:33:06;97762.34;;;13.05;62.81
12759;BME280;20944;47.048;15.390;2023-04-28T09:35:40;97729.63;;;13.12;61.83
12759;BME280;20944;47.048;15.390;2023-04-28T09:38:09;97744.50;;;13.38;62.00
12759;BME280;20944;47.048;15.390;2023-04-28T09:40:55;97753.94;;;13.44;60.24
12759;BME280;20944;47.048;15.390;2023-04-28T09:43:25;97731.88;;;13.48;60.19
12759;BME280;20944;47.048;15.390;2023-04-28T09:45:55;97735.56;;;13.66;61.00
12759;BME280;20944;47.048;15.390;2023-04-28T09:48:28;97745.28;;;13.87;60.07
12759;BME280;20944;47.048;15.390;2023-04-28T09:50:57;97733.19;;;13.82;59.20
12759;BME280;20944;47.048;15.390;2023-04-28T09:53:27;97742.28;;;13.96;60.14
12759;BME280;20944;47.048;15.390;2023-04-28T09:55:58;97739.03;;;13.90;60.10
12759;BME280;20944;47.048;15.390;2023-04-28T09:58:28;97735.41;;;13.92;59.47
12759;BME280;20944;47.048;15.390;2023-04-28T10:00:59;97724.19;;;13.87;59.85
12759;BME280;20944;47.048;15.390;2023-04-28T10:03:28;97644.44;;;13.40;60.11
12759;BME280;20944;47.048;15.390;2023-04-28T10:05:58;97703.44;;;13.80;61.81
12759;BME280;20944;47.048;15.390;2023-04-28T10:08:26;97718.97;;;14.08;60.58
12759;BME280;20944;47.048;15.390;2023-04-28T10:10:56;97717.63;;;14.19;60.10
12759;BME280;20944;47.048;15.390;2023-04-28T10:13:25;97715.50;;;14.29;60.41
12759;BME280;20944;47.048;15.390;2023-04-28T10:15:53;97704.09;;;14.28;59.06
12759;BME280;20944;47.048;15.390;2023-04-28T10:18:24;97690.84;;;14.30;58.61
12759;BME280;20944;47.048;15.390;2023-04-28T10:20:56;97703.59;;;14.41;58.66
12759;BME280;20944;47.048;15.390;2023-04-28T10:23:46;97720.44;;;14.59;58.98
12759;BME280;20944;47.048;15.390;2023-04-28T10:26:20;97633.25;;;14.21;59.05
12759;BME280;20944;47.048;15.390;2023-04-28T10:28:50;97700.38;;;14.75;59.62
12759;BME280;20944;47.048;15.390;2023-04-28T10:31:20;97584.75;;;14.25;58.54
12759;BME280;20944;47.048;15.390;2023-04-28T10:33:49;97672.16;;;14.77;58.34
12759;BME280;20944;47.048;15.390;2023-04-28T10:36:47;97659.25;;;14.71;59.15
12759;BME280;20944;47.048;15.390;2023-04-28T10:39:16;97667.59;;;14.80;58.85
12759;BME280;20944;47.048;15.390;2023-04-28T10:41:46;97674.19;;;14.70;57.96
12759;BME280;20944;47.048;15.390;2023-04-28T10:44:42;97670.78;;;14.68;56.67
12759;BME280;20944;47.048;15.390;2023-04-28T10:47:11;97658.44;;;14.69;56.66
12759;BME280;20944;47.048;15.390;2023-04-28T10:50:07;97647.63;;;14.75;57.54
12759;BME280;20944;47.048;15.390;2023-04-28T10:52:47;97642.78;;;14.66;57.49
12759;BME280;20944;47.048;15.390;2023-04-28T10:55:29;97650.94;;;14.80;57.95
12759;BME280;20944;47.048;15.390;2023-04-28T10:58:31;97648.88;;;14.87;57.46
12759;BME280;20944;47.048;15.390;2023-04-28T11:01:26;97655.94;;;14.86;58.57
12759;BME280;20944;47.048;15.390;2023-04-28T11:03:57;97652.56;;;14.82;57.17
12759;BME280;20944;47.048;15.390;2023-04-28T11:06:31;97642.34;;;14.75;57.09
12759;BME280;20944;47.048;15.390;2023-04-28T11:09:03;97609.59;;;14.60;57.81
12759;BME280;20944;47.048;15.390;2023-04-28T11:12:03;97621.75;;;14.83;58.06
12759;BME280;20944;47.048;15.390;2023-04-28T11:14:34;97634.03;;;14.84;56.90
12759;BME280;20944;47.048;15.390;2023-04-28T11:17:04;97608.44;;;14.86;57.09
12759;BME280;20944;47.048;15.390;2023-04-28T11:19:34;97619.94;;;15.04;57.09
12759;BME280;20944;47.048;15.390;2023-04-28T11:22:04;97600.16;;;14.75;57.24
12759;BME280;20944;47.048;15.390;2023-04-28T11:24:37;97512.09;;;14.38;58.45
12759;BME280;20944;47.048;15.390;2023-04-28T11:27:05;97607.16;;;15.14;58.91
12759;BME280;20944;47.048;15.390;2023-04-28T11:29:36;97601.88;;;15.14;56.82
12759;BME280;20944;47.048;15.390;2023-04-28T11:32:05;97543.63;;;14.99;57.12
12759;BME280;20944;47.048;15.390;2023-04-28T11:34:34;97420.59;;;14.61;56.45
12759;BME280;20944;47.048;15.390;2023-04-28T11:37:03;97590.94;;;15.78;56.13
12759;BME280;20944;47.048;15.390;2023-04-28T11:39:33;97575.13;;;15.76;55.23
12759;BME280;20944;47.048;15.390;2023-04-28T11:42:09;97591.34;;;16.05;54.71
12759;BME280;20944;47.048;15.390;2023-04-28T11:44:39;97588.53;;;16.25;54.69
12759;BME280;20944;47.048;15.390;2023-04-28T11:47:08;97571.00;;;16.40;53.91
12759;BME280;20944;47.048;15.390;2023-04-28T11:49:43;97560.75;;;16.34;54.24
12759;BME280;20944;47.048;15.390;2023-04-28T11:52:12;97492.56;;;15.73;55.06
12759;BME280;20944;47.048;15.390;2023-04-28T11:54:41;97568.22;;;16.08;56.72
12759;BME280;20944;47.048;15.390;2023-04-28T11:57:17;97565.44;;;16.11;56.53
12759;BME280;20944;47.048;15.390;2023-04-28T11:59:47;97545.69;;;16.01;55.11
12759;BME280;20944;47.048;15.390;2023-04-28T12:02:24;97518.34;;;15.68;56.54
12759;BME280;20944;47.048;15.390;2023-04-28T12:04:55;97561.47;;;15.68;56.59
12759;BME280;20944;47.048;15.390;2023-04-28T12:07:23;97569.56;;;15.65;56.94
12759;BME280;20944;47.048;15.390;2023-04-28T12:10:09;97566.03;;;15.64;57.06
12759;BME280;20944;47.048;15.390;2023-04-28T12:12:38;97569.16;;;15.73;56.22
12759;BME280;20944;47.048;15.390;2023-04-28T12:15:19;97545.44;;;15.71;56.32
12759;BME280;20944;47.048;15.390;2023-04-28T12:17:48;97556.34;;;16.00;57.38
12759;BME280;20944;47.048;15.390;2023-04-28T12:20:33;97525.03;;;15.75;56.00
12759;BME280;20944;47.048;15.390;2023-04-28T12:23:02;97548.72;;;15.76;55.21
12759;BME280;20944;47.048;15.390;2023-04-28T12:25:31;97562.19;;;15.72;56.13
12759;BME280;20944;47.048;15.390;2023-04-28T12:28:03;97553.63;;;15.67;56.84
12759;BME280;20944;47.048;15.390;2023-04-28T12:30:34;97544.03;;;15.64;57.68
12759;BME280;20944;47.048;15.390;2023-04-28T12:33:04;97548.25;;;15.68;58.74
12759;BME280;20944;47.048;15.390;2023-04-28T12:35:33;97547.53;;;15.64;57.68
12759;BME280;20944;47.048;15.390;2023-04-28T12:38:01;97551.94;;;15.47;57.73
12759;BME280;20944;47.048;15.390;2023-04-28T12:40:29;97508.81;;;15.10;58.00
12759;BME280;20944;47.048;15.390;2023-04-28T12:42:57;97529.69;;;15.15;59.68
12759;BME280;20944;47.048;15.390;2023-04-28T12:45:26;97536.75;;;15.14;59.62
12759;BME280;20944;47.048;15.390;2023-04-28T12:47:57;97469.34;;;14.71;59.02
12759;BME280;20944;47.048;15.390;2023-04-28T12:50:26;97427.63;;;14.41;59.68
12759;BME280;20944;47.048;15.390;2023-04-28T12:52:58;97530.00;;;15.08;60.78
12759;BME280;20944;47.048;15.390;2023-04-28T12:55:27;97514.72;;;15.15;61.90
12759;BME280;20944;47.048;15.390;2023-04-28T12:57:56;97451.44;;;14.96;60.90
12759;BME280;20944;47.048;15.390;2023-04-28T13:00:25;97518.03;;;15.37;58.91
12759;BME280;20944;47.048;15.390;2023-04-28T13:02:53;97526.38;;;15.47;59.71
12759;BME280;20944;47.048;15.390;2023-04-28T13:05:26;97464.84;;;15.28;58.79
12759;BME280;20944;47.048;15.390;2023-04-28T13:07:54;97525.81;;;15.58;59.31